createdAt,value
2022-12-08T00:02:46.966Z,6.87
2022-12-08T00:08:31.135Z,6.70
2022-12-08T00:13:55.234Z,11.03
2022-12-08T00:19:18.808Z,8.27
2022-12-08T00:24:50.106Z,7.90
2022-12-08T00:30:13.409Z,5.63
2022-12-08T00:35:43.113Z,7.37
2022-12-08T00:41:10.873Z,5.63
2022-12-08T00:46:50.388Z,7.70
2022-12-08T00:52:20.575Z,6.37
2022-12-08T00:57:46.252Z,6.17
2022-12-08T01:03:14.220Z,6.23
2022-12-08T01:08:45.639Z,8.00
2022-12-08T01:14:15.203Z,9.30
2022-12-08T01:19:39.561Z,10.17
2022-12-08T01:25:02.680Z,9.57
2022-12-08T01:30:28.917Z,5.77
2022-12-08T01:35:54.601Z,8.57
2022-12-08T01:41:39.712Z,8.57
2022-12-08T01:47:09.721Z,6.00
2022-12-08T01:52:40.067Z,9.50
2022-12-08T01:58:11.172Z,6.87
2022-12-08T02:03:46.705Z,11.80
2022-12-08T02:09:11.680Z,6.33
2022-12-08T02:14:34.256Z,7.23
2022-12-08T02:20:32.866Z,6.73
2022-12-08T02:26:25.222Z,8.70
2022-12-08T02:32:04.002Z,5.87
2022-12-08T02:37:38.327Z,8.67
2022-12-08T02:43:05.427Z,5.40
2022-12-08T02:48:31.923Z,5.23
2022-12-08T02:54:00.182Z,5.33
2022-12-08T02:59:35.947Z,4.97
2022-12-08T03:05:08.911Z,3.80
2022-12-08T03:10:41.724Z,5.17
2022-12-08T03:16:19.591Z,5.57
2022-12-08T03:22:14.356Z,5.07
2022-12-08T03:27:43.712Z,6.10
2022-12-08T03:33:10.433Z,6.60
2022-12-08T03:38:42.261Z,5.20
2022-12-08T03:44:20.757Z,5.30
2022-12-08T03:49:44.773Z,5.57
2022-12-08T03:55:12.169Z,13.07
2022-12-08T04:00:39.296Z,5.97
2022-12-08T04:06:19.182Z,7.53
2022-12-08T04:11:52.426Z,4.73
2022-12-08T04:17:20.330Z,5.07
2022-12-08T04:22:54.717Z,7.30
2022-12-08T04:28:34.780Z,6.00
2022-12-08T04:34:03.582Z,5.27
2022-12-08T04:39:32.299Z,5.23
2022-12-08T04:44:56.484Z,5.77
2022-12-08T04:50:23.113Z,6.03
2022-12-08T04:55:49.320Z,4.73
2022-12-08T05:01:15.174Z,5.80
2022-12-08T05:06:43.495Z,6.23
2022-12-08T05:12:10.626Z,6.47
2022-12-08T05:17:35.969Z,6.40
2022-12-08T05:23:10.548Z,5.87
2022-12-08T05:28:41.751Z,6.90
2022-12-08T05:34:08.192Z,7.07
2022-12-08T05:40:32.613Z,6.23
2022-12-08T05:46:07.221Z,6.43
2022-12-08T05:51:34.221Z,6.60
2022-12-08T05:56:58.957Z,8.37
2022-12-08T06:02:24.049Z,7.03
2022-12-08T06:07:51.383Z,8.10
2022-12-08T06:13:29.192Z,5.43
2022-12-08T06:19:03.227Z,7.73
2022-12-08T06:24:26.435Z,5.73
2022-12-08T06:29:56.526Z,7.00
2022-12-08T06:35:25.341Z,5.63
2022-12-08T06:41:01.565Z,8.23
2022-12-08T06:46:25.978Z,7.03
2022-12-08T06:51:55.053Z,7.07
2022-12-08T06:57:20.219Z,6.10
2022-12-08T07:02:49.894Z,7.50
2022-12-08T07:08:15.433Z,6.73
2022-12-08T07:13:40.912Z,6.30
2022-12-08T07:19:05.711Z,9.10
2022-12-08T07:24:37.996Z,8.73
2022-12-08T07:30:01.760Z,7.57
2022-12-08T07:35:49.151Z,6.80
2022-12-08T07:41:23.521Z,8.00
2022-12-08T07:46:49.652Z,6.03
2022-12-08T07:52:25.035Z,8.17
2022-12-08T07:58:15.310Z,9.67
2022-12-08T08:03:39.512Z,7.27
2022-12-08T08:09:07.478Z,10.67
2022-12-08T08:14:33.324Z,6.90
2022-12-08T08:19:57.984Z,5.93
2022-12-08T08:25:27.295Z,8.50
2022-12-08T08:31:04.474Z,5.87
2022-12-08T08:36:27.598Z,8.30
2022-12-08T08:41:52.239Z,5.63
2022-12-08T08:47:24.153Z,7.50
2022-12-08T08:52:51.850Z,5.33
2022-12-08T08:58:19.457Z,4.33
2022-12-08T09:03:46.941Z,4.80
2022-12-08T09:09:13.681Z,3.50
2022-12-08T09:14:39.765Z,5.10
2022-12-08T09:20:07.680Z,4.40
2022-12-08T09:25:54.136Z,4.73
2022-12-08T09:31:18.517Z,4.50
2022-12-08T09:36:44.602Z,4.77
2022-12-08T09:42:14.434Z,4.60
2022-12-08T09:47:43.594Z,5.10
2022-12-08T09:53:15.293Z,6.03
2022-12-08T09:58:52.222Z,5.27
2022-12-08T10:04:28.796Z,5.97
2022-12-08T10:10:03.490Z,8.53
2022-12-08T10:15:47.028Z,7.07
2022-12-08T10:21:23.743Z,5.80
2022-12-08T10:27:00.926Z,7.33
2022-12-08T10:32:27.729Z,8.00
2022-12-08T10:38:03.246Z,7.83
2022-12-08T10:43:29.537Z,5.97
2022-12-08T10:48:56.010Z,7.07
2022-12-08T10:54:36.428Z,5.90
2022-12-08T11:00:01.770Z,8.20
2022-12-08T11:05:28.831Z,7.00
2022-12-08T11:10:54.206Z,6.27
2022-12-08T11:16:35.596Z,7.37
2022-12-08T11:22:01.805Z,5.93
2022-12-08T11:27:37.326Z,5.17
2022-12-08T11:33:10.645Z,5.07
2022-12-08T11:38:36.497Z,5.97
2022-12-08T11:44:04.381Z,5.63
2022-12-08T11:49:37.542Z,4.57
2022-12-08T11:55:06.303Z,5.17
2022-12-08T12:00:28.841Z,4.13
2022-12-08T12:06:24.228Z,4.20
2022-12-08T12:12:19.264Z,5.80
2022-12-08T12:17:47.240Z,4.40
2022-12-08T12:23:33.562Z,4.73
2022-12-08T12:29:06.998Z,5.40
2022-12-08T12:34:32.767Z,5.17
2022-12-08T12:40:12.822Z,4.87
2022-12-08T12:45:43.662Z,4.87
2022-12-08T12:51:45.647Z,5.53
2022-12-08T12:57:27.411Z,5.73
2022-12-08T13:02:55.733Z,4.73
2022-12-08T13:08:27.981Z,4.60
2022-12-08T13:14:03.912Z,4.30
2022-12-08T13:19:32.101Z,5.47
2022-12-08T13:25:24.481Z,7.60
2022-12-08T13:30:54.848Z,4.20
2022-12-08T13:36:28.334Z,4.23
2022-12-08T13:42:02.929Z,3.90
2022-12-08T13:47:49.571Z,6.17
2022-12-08T13:54:35.345Z,4.57
2022-12-08T13:59:34.421Z,4.27
2022-12-08T14:05:19.392Z,5.23
2022-12-08T14:10:45.263Z,4.93
2022-12-08T14:16:28.201Z,5.53
2022-12-08T14:22:05.534Z,6.60
2022-12-08T14:27:34.865Z,4.65
2022-12-08T14:33:03.981Z,5.43
2022-12-08T14:38:34.136Z,6.07
2022-12-08T14:44:07.483Z,4.80
2022-12-08T14:49:43.070Z,4.37
2022-12-08T14:55:14.883Z,6.93
2022-12-08T15:00:40.590Z,4.20
2022-12-08T15:06:10.304Z,7.43
2022-12-08T15:11:57.028Z,4.13
2022-12-08T15:17:40.000Z,5.70
2022-12-08T15:23:02.806Z,4.97
2022-12-08T15:28:30.589Z,4.40
2022-12-08T15:33:54.806Z,3.90
2022-12-08T15:39:28.675Z,3.47
2022-12-08T15:44:59.713Z,3.77
2022-12-08T15:50:26.249Z,4.33
2022-12-08T15:56:25.863Z,5.73
2022-12-08T16:01:42.034Z,4.83
2022-12-08T16:07:23.192Z,7.97
2022-12-08T16:19:06.117Z,4.53
2022-12-08T16:24:37.157Z,3.97
2022-12-08T16:30:03.545Z,5.60
2022-12-08T16:35:37.385Z,2.87
2022-12-08T16:41:19.337Z,4.57
2022-12-08T16:46:42.557Z,2.17
2022-12-08T16:52:12.800Z,2.07
2022-12-08T16:57:39.474Z,1.23
2022-12-08T17:03:08.611Z,1.10
2022-12-08T17:14:21.879Z,1.97
2022-12-08T17:19:52.003Z,1.20
2022-12-08T17:25:21.830Z,2.20
2022-12-08T17:30:46.749Z,3.37
2022-12-08T17:36:18.071Z,1.97
2022-12-08T17:41:43.857Z,1.40
2022-12-08T17:47:13.805Z,1.50
2022-12-08T17:52:43.954Z,1.03
2022-12-08T17:58:08.713Z,2.93
2022-12-08T18:03:35.440Z,1.70
2022-12-08T18:08:59.609Z,5.00
2022-12-08T18:14:24.552Z,6.73
2022-12-08T18:19:52.973Z,3.10
2022-12-08T18:25:19.982Z,2.63
2022-12-08T18:30:53.181Z,2.63
2022-12-08T18:36:24.880Z,1.73
2022-12-08T18:41:58.531Z,2.57
2022-12-08T18:47:25.485Z,2.50
2022-12-08T18:52:49.947Z,3.27
2022-12-08T18:58:16.889Z,4.50
2022-12-08T19:03:58.520Z,6.53
2022-12-08T19:09:44.049Z,3.80
2022-12-08T19:15:08.452Z,5.80
2022-12-08T19:20:38.726Z,5.57
2022-12-08T19:26:03.441Z,6.67
2022-12-08T19:31:27.578Z,4.80
2022-12-08T19:36:58.114Z,5.30
2022-12-08T19:42:43.595Z,6.63
2022-12-08T19:48:09.150Z,4.77
2022-12-08T19:53:43.012Z,4.97
2022-12-08T19:59:10.858Z,4.47
2022-12-08T20:04:36.970Z,5.07
2022-12-08T20:10:02.877Z,5.97
2022-12-08T20:15:32.200Z,5.10
2022-12-08T20:21:02.447Z,5.13
2022-12-08T20:26:33.134Z,4.77
2022-12-08T20:32:02.438Z,7.50
2022-12-08T20:37:29.997Z,4.10
2022-12-08T20:42:56.506Z,4.87
2022-12-08T20:48:29.181Z,4.80
2022-12-08T20:53:54.108Z,4.90
2022-12-08T20:59:24.755Z,6.17
2022-12-08T21:04:59.324Z,5.67
2022-12-08T21:10:29.741Z,5.83
2022-12-08T21:15:58.564Z,7.00
2022-12-08T21:21:24.762Z,6.77
2022-12-08T21:26:49.835Z,8.23
2022-12-08T21:32:31.017Z,7.67
2022-12-08T21:37:58.284Z,7.80
2022-12-08T21:43:21.714Z,7.30
2022-12-08T21:48:55.584Z,6.97
2022-12-08T21:54:21.576Z,6.57
2022-12-08T21:59:50.648Z,7.83
2022-12-08T22:05:17.105Z,9.20
2022-12-08T22:10:44.817Z,8.30
2022-12-08T22:16:09.576Z,6.83
2022-12-08T22:21:38.816Z,6.77
2022-12-08T22:27:02.266Z,7.60
2022-12-08T22:32:25.931Z,6.13
2022-12-08T22:37:54.837Z,7.40
2022-12-08T22:43:19.031Z,10.33
2022-12-08T22:48:46.212Z,8.63
2022-12-08T22:54:23.149Z,8.97
2022-12-08T22:59:52.843Z,9.37
2022-12-08T23:05:18.441Z,9.50
2022-12-08T23:10:43.055Z,11.77
2022-12-08T23:16:13.832Z,8.73
2022-12-08T23:21:38.251Z,11.20
2022-12-08T23:27:07.770Z,10.57
2022-12-08T23:32:34.241Z,8.63
2022-12-08T23:38:02.543Z,9.97
2022-12-08T23:43:30.757Z,10.03
2022-12-08T23:48:56.664Z,10.53
2022-12-08T23:54:22.754Z,11.97
2022-12-08T23:59:51.726Z,10.57
